COUO2: Red River nr Courtney, OK

Data processed at Wed May 22 2019 23:50


All information presented herein is the property of the government of the United States of America and may be revised or deleted at any time without prior notice.
Dissemination of this information without the expressed written consent of the Public Affairs Office, Tulsa District U.S. Army Corps of Engineers is strictly prohibited.
These data are gathered electronically and, as presented, have not undergone any form of quality control. These data are not guaranteed to be valid or correct.
Go to home page.
Go to station list.
Go to home page.

Upstream stations:

Downstream station:
Previous Day
Next Day
Current Day
    
SHEF ID:       COUO2     Red River nr Courtney, OK
STATION TYPE:  

               PRECIP     STAGE  RIV-FLOW  BAT-LOAD
                   in        ft       cfs      volt
              Ccp-Rev   Ccp-Rev   Ccp-Rev   Ccp-Rev
(US/Central)
05/22 00:00      ----     17.15      7907     12.81
05/22 01:00      ----     17.15      7907     12.73
05/22 02:00      ----     17.12      7854     12.73
05/22 03:00      ----     17.13      7872     12.65
05/22 04:00      ----     17.17      7943     12.65
05/22 05:00      ----     17.18      7960     12.65
05/22 06:00      ----     17.25      8085     12.65
05/22 07:00      ----     17.43      8409     12.65
05/22 08:00      ----     18.01      9494     13.44
05/22 09:00      ----     18.85     11179     13.53
05/22 10:00      ----     19.63     12862     13.53
05/22 11:00      ----     20.14     14024     13.53
05/22 12:00      ----     20.48     14825     13.53
05/22 13:00      ----     20.79     15575     13.53
05/22 14:00      ----     21.06     16242     13.44
05/22 15:00      ----     21.15     16467     13.53
05/22 16:00      ----     21.25     16929     13.53
05/22 17:00      ----     21.33     17349     13.44
05/22 18:00      ----     21.46     18046     13.44
05/22 19:00      ----     21.46     18046     13.37
05/22 20:00      ----     21.56     18597     13.13
05/22 21:00      ----     21.62     18934     12.89
05/22 22:00      ----     21.70     19389     12.89
05/22 23:00      ----     21.65     19104     12.81